createdAt,value
2024-04-23T00:03:45.122Z,0.96
2024-04-23T00:08:47.153Z,0.89
2024-04-23T00:13:49.191Z,0.90
2024-04-23T00:18:51.469Z,0.95
2024-04-23T00:23:53.570Z,0.78
2024-04-23T00:28:55.607Z,0.70
2024-04-23T00:33:57.616Z,0.59
2024-04-23T00:38:59.668Z,0.52
2024-04-23T00:44:01.738Z,0.45
2024-04-23T00:49:04.110Z,0.48
2024-04-23T00:54:07.652Z,0.38
2024-04-23T00:59:17.916Z,0.33
2024-04-23T01:04:19.991Z,0.35
2024-04-23T01:09:22.399Z,0.28
2024-04-23T01:14:24.469Z,0.33
2024-04-23T01:19:41.788Z,0.17
2024-04-23T01:25:01.100Z,0.08
2024-04-23T01:30:05.530Z,0.06
2024-04-23T01:35:11.820Z,0.00
2024-04-23T01:40:14.322Z,-0.06
2024-04-23T01:45:17.506Z,-0.11
2024-04-23T01:50:19.759Z,-0.18
2024-04-23T01:55:21.864Z,-0.14
2024-04-23T02:00:25.157Z,-0.11
2024-04-23T02:05:28.309Z,-0.10
2024-04-23T02:10:30.829Z,-0.21
2024-04-23T02:15:32.810Z,-0.36
2024-04-23T02:20:34.843Z,-0.41
2024-04-23T02:25:36.916Z,-0.41
2024-04-23T02:30:39.156Z,-0.46
2024-04-23T02:35:41.231Z,-0.50
2024-04-23T02:40:43.271Z,-0.46
2024-04-23T02:45:45.396Z,-0.55
2024-04-23T02:50:47.398Z,-0.63
2024-04-23T02:55:49.567Z,-0.69
2024-04-23T03:00:51.705Z,-0.66
2024-04-23T03:05:53.715Z,-0.68
2024-04-23T03:10:55.768Z,-0.75
2024-04-23T03:15:58.230Z,-0.80
2024-04-23T03:21:00.272Z,-0.86
2024-04-23T03:26:02.407Z,-0.84
2024-04-23T03:31:04.697Z,-0.90
2024-04-23T03:36:07.932Z,-0.89
2024-04-23T03:41:09.919Z,-0.91
2024-04-23T03:46:12.024Z,-0.96
2024-04-23T03:51:14.016Z,-0.92
2024-04-23T03:56:16.045Z,-0.93
2024-04-23T04:01:18.075Z,-1.05
2024-04-23T04:06:20.510Z,-1.06
2024-04-23T04:11:22.646Z,-1.05
2024-04-23T04:16:24.844Z,-1.05
2024-04-23T04:21:26.826Z,-1.12
2024-04-23T04:26:28.884Z,-1.14
2024-04-23T04:31:30.932Z,-1.19
2024-04-23T04:36:33.001Z,-1.15
2024-04-23T04:41:35.101Z,-1.21
2024-04-23T04:46:37.262Z,-1.03
2024-04-23T04:51:39.300Z,-1.04
2024-04-23T04:56:41.352Z,-1.06
2024-04-23T05:01:43.377Z,-1.02
2024-04-23T05:06:45.786Z,-0.93
2024-04-23T05:11:48.000Z,-0.83
2024-04-23T05:16:50.031Z,-0.71
2024-04-23T05:21:52.102Z,-0.64
2024-04-23T05:26:54.104Z,-0.52
2024-04-23T05:32:14.992Z,-0.44
2024-04-23T05:37:17.010Z,-0.29
2024-04-23T05:42:19.876Z,-0.06
2024-04-23T05:47:22.099Z,0.26
2024-04-23T05:53:20.738Z,0.57
2024-04-23T05:58:22.825Z,0.92
2024-04-23T06:03:24.843Z,1.01
2024-04-23T06:08:27.615Z,1.26
2024-04-23T06:13:29.761Z,1.80
2024-04-23T06:18:31.847Z,1.82
2024-04-23T06:23:34.047Z,2.25
2024-04-23T06:28:36.788Z,2.36
2024-04-23T06:33:39.095Z,2.72
2024-04-23T06:38:41.189Z,2.75
2024-04-23T06:43:43.257Z,3.33
2024-04-23T06:48:45.415Z,4.04
2024-04-23T06:53:47.447Z,4.31
2024-04-23T06:58:49.486Z,3.96
2024-04-23T07:03:51.597Z,4.19
2024-04-23T07:08:56.368Z,4.08
2024-04-23T07:13:58.668Z,5.11
2024-04-23T07:19:02.440Z,4.99
2024-04-23T07:24:04.960Z,5.11
2024-04-23T07:29:07.765Z,6.50
2024-04-23T07:34:09.876Z,6.75
2024-04-23T07:39:14.339Z,6.30
2024-04-23T07:44:17.532Z,6.96
2024-04-23T07:49:19.561Z,6.48
2024-04-23T07:54:21.632Z,6.35
2024-04-23T07:59:23.730Z,7.43
2024-04-23T08:04:25.744Z,7.92
2024-04-23T08:09:27.760Z,7.01
2024-04-23T08:14:29.791Z,7.46
2024-04-23T08:19:31.858Z,7.36
2024-04-23T08:24:33.934Z,8.99
2024-04-23T08:29:36.007Z,8.81
2024-04-23T08:34:38.304Z,8.98
2024-04-23T08:39:40.317Z,8.38
2024-04-23T08:44:44.609Z,7.82
2024-04-23T08:49:48.054Z,9.02
2024-04-23T08:54:50.142Z,10.29
2024-04-23T08:59:52.583Z,10.20
2024-04-23T09:04:59.312Z,9.71
2024-04-23T09:10:04.261Z,9.60
2024-04-23T09:15:07.456Z,9.96
2024-04-23T09:20:13.551Z,8.94
2024-04-23T09:25:16.354Z,9.17
2024-04-23T09:30:31.206Z,8.84
2024-04-23T09:35:33.338Z,8.62
2024-04-23T09:40:40.672Z,8.53
2024-04-23T09:45:43.469Z,8.66
2024-04-23T09:50:45.941Z,8.71
2024-04-23T09:56:03.697Z,8.80
2024-04-23T10:01:07.216Z,8.72
2024-04-23T10:06:19.139Z,8.81
2024-04-23T10:11:32.018Z,9.08
2024-04-23T10:16:45.978Z,9.22
2024-04-23T10:21:48.241Z,9.30
2024-04-23T10:26:50.879Z,9.56
2024-04-23T10:31:53.082Z,9.67
2024-04-23T10:36:56.370Z,8.95
2024-04-23T10:42:00.809Z,8.78
2024-04-23T10:47:03.619Z,9.05
2024-04-23T10:52:06.674Z,9.19
2024-04-23T10:57:09.103Z,9.28
2024-04-23T11:02:13.280Z,9.59
2024-04-23T11:07:27.100Z,10.18
2024-04-23T11:12:33.035Z,10.65
2024-04-23T11:17:42.094Z,10.95
2024-04-23T11:22:54.719Z,9.51
2024-04-23T11:27:57.068Z,9.83
2024-04-23T11:32:59.233Z,10.51
2024-04-23T11:38:01.320Z,9.59
2024-04-23T11:43:03.479Z,10.25
2024-04-23T11:48:06.011Z,10.89
2024-04-23T11:53:08.642Z,10.96
2024-04-23T11:58:10.715Z,11.15
2024-04-23T12:03:12.761Z,10.94
2024-04-23T12:08:18.153Z,11.36
2024-04-23T12:13:21.061Z,10.93
2024-04-23T12:18:23.242Z,11.30
2024-04-23T12:23:25.671Z,11.23
2024-04-23T12:28:27.730Z,11.45
2024-04-23T12:33:30.229Z,11.37
2024-04-23T12:38:49.141Z,11.41
2024-04-23T12:43:53.583Z,11.22
2024-04-23T12:48:57.683Z,11.42
2024-04-23T12:54:10.640Z,11.05
2024-04-23T12:59:16.793Z,10.97
2024-04-23T13:04:21.437Z,11.52
2024-04-23T13:09:26.513Z,11.57
2024-04-23T13:14:32.879Z,11.66
2024-04-23T13:19:37.589Z,11.16
2024-04-23T13:24:44.562Z,11.16
2024-04-23T13:29:50.114Z,11.29
2024-04-23T13:34:53.748Z,10.52
2024-04-23T13:40:07.729Z,10.90
2024-04-23T13:45:10.486Z,11.37
2024-04-23T13:50:13.299Z,10.85
2024-04-23T13:55:16.729Z,10.44
2024-04-23T14:00:21.249Z,10.98
2024-04-23T14:05:26.030Z,10.52
2024-04-23T14:10:33.379Z,10.89
2024-04-23T14:15:38.986Z,10.69
2024-04-23T14:20:44.974Z,10.98
2024-04-23T14:25:47.685Z,11.32
2024-04-23T14:30:51.084Z,10.99
2024-04-23T14:35:59.932Z,10.88
2024-04-23T14:41:07.493Z,10.88
2024-04-23T14:46:15.867Z,10.92
2024-04-23T14:51:21.126Z,10.97
2024-04-23T14:56:27.244Z,11.30
2024-04-23T15:01:37.473Z,10.70
2024-04-23T15:06:48.287Z,10.81
2024-04-23T15:11:54.892Z,10.96
2024-04-23T15:17:12.270Z,11.33
2024-04-23T15:22:17.993Z,10.83
2024-04-23T15:27:23.502Z,10.48
2024-04-23T15:32:31.120Z,11.13
2024-04-23T15:37:34.658Z,11.19
2024-04-23T15:42:43.691Z,11.18
2024-04-23T15:47:55.807Z,11.09
2024-04-23T15:53:00.377Z,10.71
2024-04-23T15:58:05.127Z,10.36
2024-04-23T16:03:07.619Z,10.50
2024-04-23T16:08:10.135Z,10.85
2024-04-23T16:13:12.771Z,10.91
2024-04-23T16:18:16.061Z,10.63
2024-04-23T16:23:18.254Z,10.33
2024-04-23T16:28:21.228Z,9.98
2024-04-23T16:33:28.641Z,9.30
2024-04-23T16:38:31.107Z,9.47
2024-04-23T16:43:33.385Z,9.53
2024-04-23T16:48:36.444Z,9.46
2024-04-23T16:53:39.965Z,9.07
2024-04-23T16:58:42.141Z,8.66
2024-04-23T17:03:46.009Z,8.58
2024-04-23T17:08:48.211Z,8.48
2024-04-23T17:13:50.355Z,8.15
2024-04-23T17:18:52.470Z,7.82
2024-04-23T17:23:55.445Z,7.99
2024-04-23T17:29:01.312Z,7.76
2024-04-23T17:34:03.561Z,7.26
2024-04-23T17:39:05.720Z,7.26
2024-04-23T17:44:08.061Z,7.13
2024-04-23T17:49:11.413Z,6.99
2024-04-23T17:54:13.485Z,6.89
2024-04-23T17:59:15.514Z,7.11
2024-04-23T18:04:17.566Z,7.01
2024-04-23T18:09:19.698Z,7.02
2024-04-23T18:14:21.818Z,7.02
2024-04-23T18:19:23.989Z,6.97
2024-04-23T18:24:26.005Z,6.93
2024-04-23T18:29:28.298Z,7.03
2024-04-23T18:34:30.810Z,6.98
2024-04-23T18:39:32.953Z,6.95
2024-04-23T18:44:36.357Z,6.96
2024-04-23T18:49:38.361Z,6.76
2024-04-23T18:54:42.977Z,6.73
2024-04-23T18:59:46.636Z,6.57
2024-04-23T19:04:48.622Z,6.46
2024-04-23T19:09:51.514Z,6.51
2024-04-23T19:14:53.669Z,6.28
2024-04-23T19:19:58.181Z,6.22
2024-04-23T19:25:01.892Z,6.34
2024-04-23T19:30:04.670Z,6.16
2024-04-23T19:35:07.374Z,6.20
2024-04-23T19:40:13.473Z,6.18
2024-04-23T19:45:15.673Z,6.27
2024-04-23T19:50:17.885Z,6.31
2024-04-23T19:55:21.444Z,6.42
2024-04-23T20:00:27.445Z,6.33
2024-04-23T20:05:29.710Z,6.35
2024-04-23T20:10:33.638Z,6.37
2024-04-23T20:15:35.772Z,6.32
2024-04-23T20:20:38.044Z,6.20
2024-04-23T20:25:47.426Z,6.14
2024-04-23T20:30:49.706Z,6.09
2024-04-23T20:35:51.820Z,6.04
2024-04-23T20:40:55.596Z,6.04
2024-04-23T20:45:57.772Z,5.90
2024-04-23T20:51:00.206Z,6.01
2024-04-23T20:56:09.313Z,5.88
2024-04-23T21:01:14.643Z,5.83
2024-04-23T21:06:16.884Z,5.63
2024-04-23T21:11:19.558Z,5.61
2024-04-23T21:16:25.025Z,5.39
2024-04-23T21:21:27.407Z,5.31
2024-04-23T21:26:29.844Z,5.20
2024-04-23T21:31:35.510Z,5.13
2024-04-23T21:36:39.493Z,5.13
2024-04-23T21:41:44.846Z,5.05
2024-04-23T21:46:48.357Z,4.97
2024-04-23T21:52:15.845Z,4.89
2024-04-23T21:57:18.634Z,4.86
2024-04-23T22:02:23.731Z,4.94
2024-04-23T22:07:25.841Z,4.89
2024-04-23T22:12:27.902Z,4.77
2024-04-23T22:17:32.513Z,4.68
2024-04-23T22:22:35.127Z,4.65
2024-04-23T22:27:41.587Z,4.55
2024-04-23T22:32:43.692Z,4.49
2024-04-23T22:37:47.618Z,4.57
2024-04-23T22:42:49.754Z,4.32
2024-04-23T22:47:51.798Z,4.17
2024-04-23T22:52:53.843Z,4.06
2024-04-23T22:57:55.874Z,3.89
2024-04-23T23:02:57.916Z,3.91
2024-04-23T23:07:59.987Z,3.91
2024-04-23T23:13:01.974Z,3.91
2024-04-23T23:18:04.337Z,3.87
2024-04-23T23:23:06.358Z,3.88
2024-04-23T23:28:09.559Z,3.96
2024-04-23T23:33:11.919Z,3.96
2024-04-23T23:38:14.054Z,3.90
2024-04-23T23:43:16.468Z,3.91
2024-04-23T23:48:18.684Z,3.91
2024-04-23T23:53:20.766Z,3.95
2024-04-23T23:58:22.842Z,3.86
